sensor_id;sensor_type;location;lat;lon;timestamp;temperature;humidity
17442;DHT22;8838;50.144;8.176;2022-07-22T00:02:22;17.60;99.90
17442;DHT22;8838;50.144;8.176;2022-07-22T00:04:49;17.60;99.90
17442;DHT22;8838;50.144;8.176;2022-07-22T00:07:16;17.80;99.90
17442;DHT22;8838;50.144;8.176;2022-07-22T00:09:43;17.70;99.90
17442;DHT22;8838;50.144;8.176;2022-07-22T00:12:09;17.60;99.90
17442;DHT22;8838;50.144;8.176;2022-07-22T00:14:36;17.50;99.90
17442;DHT22;8838;50.144;8.176;2022-07-22T00:17:05;17.50;99.90
17442;DHT22;8838;50.144;8.176;2022-07-22T00:19:32;17.50;99.90
17442;DHT22;8838;50.144;8.176;2022-07-22T00:21:58;17.50;99.90
17442;DHT22;8838;50.144;8.176;2022-07-22T00:24:25;17.60;99.90
17442;DHT22;8838;50.144;8.176;2022-07-22T00:26:52;17.60;99.90
17442;DHT22;8838;50.144;8.176;2022-07-22T00:29:19;17.70;99.90
17442;DHT22;8838;50.144;8.176;2022-07-22T00:31:46;17.70;99.90
17442;DHT22;8838;50.144;8.176;2022-07-22T00:34:15;17.80;99.90
17442;DHT22;8838;50.144;8.176;2022-07-22T00:36:41;17.80;99.90
17442;DHT22;8838;50.144;8.176;2022-07-22T00:39:08;17.80;99.90
17442;DHT22;8838;50.144;8.176;2022-07-22T00:41:35;17.80;99.90
17442;DHT22;8838;50.144;8.176;2022-07-22T00:44:04;17.80;99.90
17442;DHT22;8838;50.144;8.176;2022-07-22T00:46:32;17.80;99.90
17442;DHT22;8838;50.144;8.176;2022-07-22T00:49:00;17.80;99.90
17442;DHT22;8838;50.144;8.176;2022-07-22T00:51:28;17.80;99.90
17442;DHT22;8838;50.144;8.176;2022-07-22T00:53:57;17.80;99.90
17442;DHT22;8838;50.144;8.176;2022-07-22T00:56:25;17.80;99.90
17442;DHT22;8838;50.144;8.176;2022-07-22T00:58:55;17.80;99.90
17442;DHT22;8838;50.144;8.176;2022-07-22T01:01:22;17.80;99.90
17442;DHT22;8838;50.144;8.176;2022-07-22T01:03:49;17.80;99.90
17442;DHT22;8838;50.144;8.176;2022-07-22T01:06:16;17.90;99.90
17442;DHT22;8838;50.144;8.176;2022-07-22T01:08:44;17.90;99.90
17442;DHT22;8838;50.144;8.176;2022-07-22T01:11:12;17.80;99.90
17442;DHT22;8838;50.144;8.176;2022-07-22T01:13:40;17.80;99.90
17442;DHT22;8838;50.144;8.176;2022-07-22T01:16:08;17.70;99.90
17442;DHT22;8838;50.144;8.176;2022-07-22T01:18:36;17.60;99.90
17442;DHT22;8838;50.144;8.176;2022-07-22T01:21:05;17.60;99.90
17442;DHT22;8838;50.144;8.176;2022-07-22T01:23:33;17.50;99.90
17442;DHT22;8838;50.144;8.176;2022-07-22T01:26:00;17.50;99.90
17442;DHT22;8838;50.144;8.176;2022-07-22T01:28:27;17.50;99.90
17442;DHT22;8838;50.144;8.176;2022-07-22T01:30:54;17.50;99.90
17442;DHT22;8838;50.144;8.176;2022-07-22T01:33:22;17.50;99.90
17442;DHT22;8838;50.144;8.176;2022-07-22T01:35:49;17.60;99.90
17442;DHT22;8838;50.144;8.176;2022-07-22T01:38:18;17.60;99.90
17442;DHT22;8838;50.144;8.176;2022-07-22T01:40:45;17.60;99.90
17442;DHT22;8838;50.144;8.176;2022-07-22T01:43:12;17.60;99.90
17442;DHT22;8838;50.144;8.176;2022-07-22T01:45:43;17.60;99.90
17442;DHT22;8838;50.144;8.176;2022-07-22T01:48:10;17.60;99.90
17442;DHT22;8838;50.144;8.176;2022-07-22T01:50:38;17.50;99.90
17442;DHT22;8838;50.144;8.176;2022-07-22T01:53:05;17.50;99.90
17442;DHT22;8838;50.144;8.176;2022-07-22T01:55:33;17.50;99.90
17442;DHT22;8838;50.144;8.176;2022-07-22T01:58:00;17.50;99.90
17442;DHT22;8838;50.144;8.176;2022-07-22T02:00:27;17.50;99.90
17442;DHT22;8838;50.144;8.176;2022-07-22T02:02:53;17.50;99.90
17442;DHT22;8838;50.144;8.176;2022-07-22T02:05:20;17.50;99.90
17442;DHT22;8838;50.144;8.176;2022-07-22T02:07:47;17.50;99.90
17442;DHT22;8838;50.144;8.176;2022-07-22T02:10:14;17.50;99.90
17442;DHT22;8838;50.144;8.176;2022-07-22T02:12:42;17.50;99.90
17442;DHT22;8838;50.144;8.176;2022-07-22T02:15:10;17.50;99.90
17442;DHT22;8838;50.144;8.176;2022-07-22T02:17:37;17.50;99.90
17442;DHT22;8838;50.144;8.176;2022-07-22T02:20:05;17.60;99.90
17442;DHT22;8838;50.144;8.176;2022-07-22T02:22:32;17.60;99.90
17442;DHT22;8838;50.144;8.176;2022-07-22T02:24:59;17.60;99.90
17442;DHT22;8838;50.144;8.176;2022-07-22T02:27:26;17.60;99.90
17442;DHT22;8838;50.144;8.176;2022-07-22T02:29:54;17.50;99.90
17442;DHT22;8838;50.144;8.176;2022-07-22T02:32:21;17.50;99.90
17442;DHT22;8838;50.144;8.176;2022-07-22T02:34:48;17.50;99.90
17442;DHT22;8838;50.144;8.176;2022-07-22T02:37:15;17.50;99.90
17442;DHT22;8838;50.144;8.176;2022-07-22T02:39:42;17.40;99.90
17442;DHT22;8838;50.144;8.176;2022-07-22T02:42:08;17.40;99.90
17442;DHT22;8838;50.144;8.176;2022-07-22T02:44:35;17.40;99.90
17442;DHT22;8838;50.144;8.176;2022-07-22T02:47:04;17.40;99.90
17442;DHT22;8838;50.144;8.176;2022-07-22T02:49:31;17.40;99.90
17442;DHT22;8838;50.144;8.176;2022-07-22T02:51:58;17.50;99.90
17442;DHT22;8838;50.144;8.176;2022-07-22T02:54:24;17.50;99.90
17442;DHT22;8838;50.144;8.176;2022-07-22T02:56:51;17.50;99.90
17442;DHT22;8838;50.144;8.176;2022-07-22T02:59:18;17.50;99.90
17442;DHT22;8838;50.144;8.176;2022-07-22T03:01:45;17.50;99.90
17442;DHT22;8838;50.144;8.176;2022-07-22T03:04:13;17.50;99.90
17442;DHT22;8838;50.144;8.176;2022-07-22T03:06:40;17.50;99.90
17442;DHT22;8838;50.144;8.176;2022-07-22T03:09:07;17.50;99.90
17442;DHT22;8838;50.144;8.176;2022-07-22T03:11:34;17.60;99.90
17442;DHT22;8838;50.144;8.176;2022-07-22T03:14:01;17.50;99.90
17442;DHT22;8838;50.144;8.176;2022-07-22T03:16:28;17.50;99.90
17442;DHT22;8838;50.144;8.176;2022-07-22T03:18:54;17.50;99.90
17442;DHT22;8838;50.144;8.176;2022-07-22T03:21:23;17.50;99.90
17442;DHT22;8838;50.144;8.176;2022-07-22T03:23:49;17.50;99.90
17442;DHT22;8838;50.144;8.176;2022-07-22T03:26:19;17.50;99.90
17442;DHT22;8838;50.144;8.176;2022-07-22T03:28:46;17.50;99.90
17442;DHT22;8838;50.144;8.176;2022-07-22T03:31:13;17.50;99.90
17442;DHT22;8838;50.144;8.176;2022-07-22T03:33:40;17.40;99.90
17442;DHT22;8838;50.144;8.176;2022-07-22T03:36:07;17.50;99.90
17442;DHT22;8838;50.144;8.176;2022-07-22T03:38:35;17.50;99.90
17442;DHT22;8838;50.144;8.176;2022-07-22T03:41:02;17.50;99.90
17442;DHT22;8838;50.144;8.176;2022-07-22T03:43:29;17.60;99.90
17442;DHT22;8838;50.144;8.176;2022-07-22T03:45:56;17.50;99.90
17442;DHT22;8838;50.144;8.176;2022-07-22T03:48:23;17.50;99.90
17442;DHT22;8838;50.144;8.176;2022-07-22T03:50:50;17.50;99.90
17442;DHT22;8838;50.144;8.176;2022-07-22T03:53:17;17.40;99.90
17442;DHT22;8838;50.144;8.176;2022-07-22T03:55:45;17.40;99.90
17442;DHT22;8838;50.144;8.176;2022-07-22T03:58:13;17.40;99.90
17442;DHT22;8838;50.144;8.176;2022-07-22T04:00:40;17.40;99.90
17442;DHT22;8838;50.144;8.176;2022-07-22T04:03:07;17.50;99.90
17442;DHT22;8838;50.144;8.176;2022-07-22T04:05:34;17.50;99.90
17442;DHT22;8838;50.144;8.176;2022-07-22T04:08:01;17.50;99.90
17442;DHT22;8838;50.144;8.176;2022-07-22T04:10:28;17.50;99.90
17442;DHT22;8838;50.144;8.176;2022-07-22T04:12:56;17.50;99.90
17442;DHT22;8838;50.144;8.176;2022-07-22T04:15:23;17.50;99.90
17442;DHT22;8838;50.144;8.176;2022-07-22T04:17:50;17.50;99.90
17442;DHT22;8838;50.144;8.176;2022-07-22T04:20:16;17.50;99.90
17442;DHT22;8838;50.144;8.176;2022-07-22T04:22:44;17.50;99.90
17442;DHT22;8838;50.144;8.176;2022-07-22T04:25:11;17.50;99.90
17442;DHT22;8838;50.144;8.176;2022-07-22T04:27:38;17.50;99.90
17442;DHT22;8838;50.144;8.176;2022-07-22T04:30:07;17.60;99.90
17442;DHT22;8838;50.144;8.176;2022-07-22T04:32:35;17.60;99.90
17442;DHT22;8838;50.144;8.176;2022-07-22T04:35:01;17.50;99.90
17442;DHT22;8838;50.144;8.176;2022-07-22T04:37:29;17.50;99.90
17442;DHT22;8838;50.144;8.176;2022-07-22T04:39:55;17.60;99.90
17442;DHT22;8838;50.144;8.176;2022-07-22T04:42:22;17.60;99.90
17442;DHT22;8838;50.144;8.176;2022-07-22T04:44:50;17.60;99.90
17442;DHT22;8838;50.144;8.176;2022-07-22T04:47:18;17.60;99.90
17442;DHT22;8838;50.144;8.176;2022-07-22T04:49:44;17.70;99.90
17442;DHT22;8838;50.144;8.176;2022-07-22T04:52:11;17.70;99.90
17442;DHT22;8838;50.144;8.176;2022-07-22T04:54:38;17.70;99.90
17442;DHT22;8838;50.144;8.176;2022-07-22T04:57:05;17.70;99.90
17442;DHT22;8838;50.144;8.176;2022-07-22T04:59:32;17.80;99.90
17442;DHT22;8838;50.144;8.176;2022-07-22T05:01:59;17.70;99.90
17442;DHT22;8838;50.144;8.176;2022-07-22T05:04:27;17.70;99.90
17442;DHT22;8838;50.144;8.176;2022-07-22T05:06:54;17.70;99.90
17442;DHT22;8838;50.144;8.176;2022-07-22T05:09:21;17.70;99.90
17442;DHT22;8838;50.144;8.176;2022-07-22T05:11:48;17.70;99.90
17442;DHT22;8838;50.144;8.176;2022-07-22T05:14:15;17.60;99.90
17442;DHT22;8838;50.144;8.176;2022-07-22T05:16:41;17.60;99.90
17442;DHT22;8838;50.144;8.176;2022-07-22T05:19:08;17.60;99.90
17442;DHT22;8838;50.144;8.176;2022-07-22T05:21:36;17.60;99.90
17442;DHT22;8838;50.144;8.176;2022-07-22T05:24:04;17.70;99.90
17442;DHT22;8838;50.144;8.176;2022-07-22T05:26:31;17.70;99.90
17442;DHT22;8838;50.144;8.176;2022-07-22T05:28:59;17.70;99.90
17442;DHT22;8838;50.144;8.176;2022-07-22T05:31:26;17.80;99.90
17442;DHT22;8838;50.144;8.176;2022-07-22T05:33:53;17.80;99.90
17442;DHT22;8838;50.144;8.176;2022-07-22T05:36:20;17.80;99.90
17442;DHT22;8838;50.144;8.176;2022-07-22T05:38:48;17.90;99.90
17442;DHT22;8838;50.144;8.176;2022-07-22T05:41:15;17.90;99.90
17442;DHT22;8838;50.144;8.176;2022-07-22T05:43:42;17.90;99.90
17442;DHT22;8838;50.144;8.176;2022-07-22T05:46:09;18.00;99.90
17442;DHT22;8838;50.144;8.176;2022-07-22T05:48:36;18.00;99.90
17442;DHT22;8838;50.144;8.176;2022-07-22T05:51:03;18.10;99.90
17442;DHT22;8838;50.144;8.176;2022-07-22T05:53:29;18.10;99.90
17442;DHT22;8838;50.144;8.176;2022-07-22T05:55:58;18.10;99.90
17442;DHT22;8838;50.144;8.176;2022-07-22T05:58:24;18.10;99.90
17442;DHT22;8838;50.144;8.176;2022-07-22T06:00:52;18.20;99.90
17442;DHT22;8838;50.144;8.176;2022-07-22T06:03:19;18.20;99.90
17442;DHT22;8838;50.144;8.176;2022-07-22T06:05:45;18.20;99.90
17442;DHT22;8838;50.144;8.176;2022-07-22T06:08:13;18.30;99.90
17442;DHT22;8838;50.144;8.176;2022-07-22T06:10:40;18.30;99.90
17442;DHT22;8838;50.144;8.176;2022-07-22T06:13:09;18.30;99.90
17442;DHT22;8838;50.144;8.176;2022-07-22T06:15:35;18.40;99.90
17442;DHT22;8838;50.144;8.176;2022-07-22T06:18:02;18.40;99.90
17442;DHT22;8838;50.144;8.176;2022-07-22T06:20:29;18.50;99.90
17442;DHT22;8838;50.144;8.176;2022-07-22T06:22:56;18.50;99.90
17442;DHT22;8838;50.144;8.176;2022-07-22T06:25:23;18.60;99.90
17442;DHT22;8838;50.144;8.176;2022-07-22T06:27:50;18.60;99.90
17442;DHT22;8838;50.144;8.176;2022-07-22T06:30:18;18.70;99.90
17442;DHT22;8838;50.144;8.176;2022-07-22T06:32:45;18.80;99.90
17442;DHT22;8838;50.144;8.176;2022-07-22T06:35:14;18.90;99.90
17442;DHT22;8838;50.144;8.176;2022-07-22T06:37:41;18.80;99.90
17442;DHT22;8838;50.144;8.176;2022-07-22T06:40:08;18.90;99.90
17442;DHT22;8838;50.144;8.176;2022-07-22T06:42:35;18.90;99.90
17442;DHT22;8838;50.144;8.176;2022-07-22T06:45:04;18.90;99.90
17442;DHT22;8838;50.144;8.176;2022-07-22T06:47:32;19.00;99.90
17442;DHT22;8838;50.144;8.176;2022-07-22T06:50:00;19.10;99.90
17442;DHT22;8838;50.144;8.176;2022-07-22T06:52:27;19.20;99.90
17442;DHT22;8838;50.144;8.176;2022-07-22T06:54:54;19.40;99.90
17442;DHT22;8838;50.144;8.176;2022-07-22T06:57:21;19.50;99.90
17442;DHT22;8838;50.144;8.176;2022-07-22T06:59:48;19.60;99.90
17442;DHT22;8838;50.144;8.176;2022-07-22T07:02:15;19.80;99.90
17442;DHT22;8838;50.144;8.176;2022-07-22T07:04:44;19.90;99.90
17442;DHT22;8838;50.144;8.176;2022-07-22T07:07:11;20.10;99.90
17442;DHT22;8838;50.144;8.176;2022-07-22T07:09:38;20.30;99.90
17442;DHT22;8838;50.144;8.176;2022-07-22T07:12:05;20.50;99.90
17442;DHT22;8838;50.144;8.176;2022-07-22T07:14:32;20.70;99.90
17442;DHT22;8838;50.144;8.176;2022-07-22T07:16:59;20.80;99.90
17442;DHT22;8838;50.144;8.176;2022-07-22T07:19:26;21.00;99.90
17442;DHT22;8838;50.144;8.176;2022-07-22T07:21:54;21.20;99.90
17442;DHT22;8838;50.144;8.176;2022-07-22T07:24:21;21.30;99.90
17442;DHT22;8838;50.144;8.176;2022-07-22T07:26:48;21.40;99.90
17442;DHT22;8838;50.144;8.176;2022-07-22T07:29:15;21.60;99.90
17442;DHT22;8838;50.144;8.176;2022-07-22T07:31:42;21.80;99.90
17442;DHT22;8838;50.144;8.176;2022-07-22T07:34:09;21.80;99.90
17442;DHT22;8838;50.144;8.176;2022-07-22T07:36:35;21.80;99.90
17442;DHT22;8838;50.144;8.176;2022-07-22T07:39:04;21.80;99.90
17442;DHT22;8838;50.144;8.176;2022-07-22T07:41:31;22.10;99.90
17442;DHT22;8838;50.144;8.176;2022-07-22T07:43:59;22.40;99.90
17442;DHT22;8838;50.144;8.176;2022-07-22T07:46:25;22.60;99.90
17442;DHT22;8838;50.144;8.176;2022-07-22T07:48:52;22.80;99.90
17442;DHT22;8838;50.144;8.176;2022-07-22T07:51:22;22.90;99.90
17442;DHT22;8838;50.144;8.176;2022-07-22T07:53:49;23.30;99.90
17442;DHT22;8838;50.144;8.176;2022-07-22T07:56:18;23.50;99.90
17442;DHT22;8838;50.144;8.176;2022-07-22T07:58:45;23.80;99.90
17442;DHT22;8838;50.144;8.176;2022-07-22T08:01:12;23.90;99.90
17442;DHT22;8838;50.144;8.176;2022-07-22T08:03:39;24.30;99.90
17442;DHT22;8838;50.144;8.176;2022-07-22T08:06:06;24.50;99.90
17442;DHT22;8838;50.144;8.176;2022-07-22T08:08:33;24.40;99.90
17442;DHT22;8838;50.144;8.176;2022-07-22T08:11:00;24.90;99.90
17442;DHT22;8838;50.144;8.176;2022-07-22T08:13:28;25.00;99.90
17442;DHT22;8838;50.144;8.176;2022-07-22T08:15:55;25.20;99.90
17442;DHT22;8838;50.144;8.176;2022-07-22T08:18:22;25.20;99.90
17442;DHT22;8838;50.144;8.176;2022-07-22T08:20:49;25.30;99.90
17442;DHT22;8838;50.144;8.176;2022-07-22T08:23:16;25.30;99.90
17442;DHT22;8838;50.144;8.176;2022-07-22T08:25:42;25.50;99.90
17442;DHT22;8838;50.144;8.176;2022-07-22T08:28:09;26.00;99.90
17442;DHT22;8838;50.144;8.176;2022-07-22T08:30:38;26.40;99.90
17442;DHT22;8838;50.144;8.176;2022-07-22T08:33:06;26.70;99.90
17442;DHT22;8838;50.144;8.176;2022-07-22T08:35:33;27.10;99.90
17442;DHT22;8838;50.144;8.176;2022-07-22T08:38:00;27.20;99.90
17442;DHT22;8838;50.144;8.176;2022-07-22T08:40:27;27.30;99.90
17442;DHT22;8838;50.144;8.176;2022-07-22T08:42:54;27.50;99.90
17442;DHT22;8838;50.144;8.176;2022-07-22T08:45:21;28.10;99.90
17442;DHT22;8838;50.144;8.176;2022-07-22T08:47:51;28.30;99.90
17442;DHT22;8838;50.144;8.176;2022-07-22T08:50:19;28.70;99.90
17442;DHT22;8838;50.144;8.176;2022-07-22T08:52:46;29.00;99.90
17442;DHT22;8838;50.144;8.176;2022-07-22T08:55:12;29.10;99.90
17442;DHT22;8838;50.144;8.176;2022-07-22T08:57:44;29.40;99.90
17442;DHT22;8838;50.144;8.176;2022-07-22T09:00:13;29.70;99.90
17442;DHT22;8838;50.144;8.176;2022-07-22T09:02:41;29.80;99.90
17442;DHT22;8838;50.144;8.176;2022-07-22T09:05:11;29.70;99.90
17442;DHT22;8838;50.144;8.176;2022-07-22T09:07:40;29.60;99.90
17442;DHT22;8838;50.144;8.176;2022-07-22T09:10:10;29.40;99.90
17442;DHT22;8838;50.144;8.176;2022-07-22T09:12:51;29.80;99.90
17442;DHT22;8838;50.144;8.176;2022-07-22T09:15:25;29.80;99.90
17442;DHT22;8838;50.144;8.176;2022-07-22T09:17:53;30.20;99.90
17442;DHT22;8838;50.144;8.176;2022-07-22T09:20:22;30.30;99.90
17442;DHT22;8838;50.144;8.176;2022-07-22T09:22:50;30.70;99.90
17442;DHT22;8838;50.144;8.176;2022-07-22T09:25:22;30.30;99.90
17442;DHT22;8838;50.144;8.176;2022-07-22T09:27:52;30.30;99.90
17442;DHT22;8838;50.144;8.176;2022-07-22T09:30:21;30.40;99.90
17442;DHT22;8838;50.144;8.176;2022-07-22T09:32:48;30.20;99.90
17442;DHT22;8838;50.144;8.176;2022-07-22T09:35:15;30.00;99.90
17442;DHT22;8838;50.144;8.176;2022-07-22T09:37:51;30.30;99.90
17442;DHT22;8838;50.144;8.176;2022-07-22T09:40:20;29.90;99.90
17442;DHT22;8838;50.144;8.176;2022-07-22T09:42:49;30.00;99.90
17442;DHT22;8838;50.144;8.176;2022-07-22T09:45:21;30.20;99.90
17442;DHT22;8838;50.144;8.176;2022-07-22T09:47:48;30.30;99.90
17442;DHT22;8838;50.144;8.176;2022-07-22T09:50:18;30.70;99.90
17442;DHT22;8838;50.144;8.176;2022-07-22T09:52:48;31.10;99.90
17442;DHT22;8838;50.144;8.176;2022-07-22T09:55:20;31.80;99.90
17442;DHT22;8838;50.144;8.176;2022-07-22T09:57:48;31.70;99.90
17442;DHT22;8838;50.144;8.176;2022-07-22T10:00:17;31.70;99.90
17442;DHT22;8838;50.144;8.176;2022-07-22T10:02:51;31.50;99.90
17442;DHT22;8838;50.144;8.176;2022-07-22T10:05:20;31.10;99.90
17442;DHT22;8838;50.144;8.176;2022-07-22T10:07:48;31.10;99.90
17442;DHT22;8838;50.144;8.176;2022-07-22T10:10:17;31.00;99.90
17442;DHT22;8838;50.144;8.176;2022-07-22T10:12:48;30.90;99.90
17442;DHT22;8838;50.144;8.176;2022-07-22T10:15:15;31.40;99.90
17442;DHT22;8838;50.144;8.176;2022-07-22T10:17:44;31.50;99.90
17442;DHT22;8838;50.144;8.176;2022-07-22T10:20:12;31.10;99.90
17442;DHT22;8838;50.144;8.176;2022-07-22T10:22:56;30.90;99.90
17442;DHT22;8838;50.144;8.176;2022-07-22T10:25:24;30.70;99.90
17442;DHT22;8838;50.144;8.176;2022-07-22T10:27:55;31.00;99.90
17442;DHT22;8838;50.144;8.176;2022-07-22T10:30:24;31.10;99.90
17442;DHT22;8838;50.144;8.176;2022-07-22T10:33:03;31.00;99.90
17442;DHT22;8838;50.144;8.176;2022-07-22T10:35:31;31.00;99.90
17442;DHT22;8838;50.144;8.176;2022-07-22T10:38:04;31.00;99.90
17442;DHT22;8838;50.144;8.176;2022-07-22T10:40:45;31.40;99.90
17442;DHT22;8838;50.144;8.176;2022-07-22T10:43:14;32.00;99.90
17442;DHT22;8838;50.144;8.176;2022-07-22T10:45:44;31.50;99.90
17442;DHT22;8838;50.144;8.176;2022-07-22T10:48:14;31.60;99.90
17442;DHT22;8838;50.144;8.176;2022-07-22T10:53:39;33.00;99.90
17442;DHT22;8838;50.144;8.176;2022-07-22T10:56:13;33.60;99.20
17442;DHT22;8838;50.144;8.176;2022-07-22T10:59:07;34.00;98.40
17442;DHT22;8838;50.144;8.176;2022-07-22T11:01:36;34.30;99.10
17442;DHT22;8838;50.144;8.176;2022-07-22T11:04:09;33.90;98.30
17442;DHT22;8838;50.144;8.176;2022-07-22T11:06:36;33.20;98.80
17442;DHT22;8838;50.144;8.176;2022-07-22T11:09:05;33.70;99.40
17442;DHT22;8838;50.144;8.176;2022-07-22T11:11:35;34.00;99.40
17442;DHT22;8838;50.144;8.176;2022-07-22T11:14:14;33.90;99.50
17442;DHT22;8838;50.144;8.176;2022-07-22T11:16:47;33.60;99.90
17442;DHT22;8838;50.144;8.176;2022-07-22T11:19:16;33.90;99.30
17442;DHT22;8838;50.144;8.176;2022-07-22T11:21:50;34.00;99.00
17442;DHT22;8838;50.144;8.176;2022-07-22T11:24:19;33.70;98.40
17442;DHT22;8838;50.144;8.176;2022-07-22T11:26:47;33.60;98.80
17442;DHT22;8838;50.144;8.176;2022-07-22T11:29:18;34.10;98.50
17442;DHT22;8838;50.144;8.176;2022-07-22T11:31:45;34.00;97.80
17442;DHT22;8838;50.144;8.176;2022-07-22T11:34:15;33.90;99.30
17442;DHT22;8838;50.144;8.176;2022-07-22T11:36:44;33.90;99.50
17442;DHT22;8838;50.144;8.176;2022-07-22T11:39:12;33.00;98.80
17442;DHT22;8838;50.144;8.176;2022-07-22T11:41:40;33.10;99.90
17442;DHT22;8838;50.144;8.176;2022-07-22T11:44:07;32.90;99.40
17442;DHT22;8838;50.144;8.176;2022-07-22T11:46:37;32.50;99.90
17442;DHT22;8838;50.144;8.176;2022-07-22T11:49:05;32.20;99.90
17442;DHT22;8838;50.144;8.176;2022-07-22T11:51:34;32.50;99.60
17442;DHT22;8838;50.144;8.176;2022-07-22T11:54:01;32.80;99.40
17442;DHT22;8838;50.144;8.176;2022-07-22T11:56:28;32.90;98.90
17442;DHT22;8838;50.144;8.176;2022-07-22T11:58:57;33.10;99.10
17442;DHT22;8838;50.144;8.176;2022-07-22T12:01:28;32.90;99.50
17442;DHT22;8838;50.144;8.176;2022-07-22T12:03:58;32.90;99.50
17442;DHT22;8838;50.144;8.176;2022-07-22T12:06:26;32.50;99.30
17442;DHT22;8838;50.144;8.176;2022-07-22T12:08:55;32.10;99.90
17442;DHT22;8838;50.144;8.176;2022-07-22T12:11:24;32.30;99.90
17442;DHT22;8838;50.144;8.176;2022-07-22T12:13:52;32.30;99.90
17442;DHT22;8838;50.144;8.176;2022-07-22T12:16:23;32.20;99.90
17442;DHT22;8838;50.144;8.176;2022-07-22T12:18:54;32.50;99.80
17442;DHT22;8838;50.144;8.176;2022-07-22T12:21:24;32.60;99.90
17442;DHT22;8838;50.144;8.176;2022-07-22T12:23:53;32.70;99.70
17442;DHT22;8838;50.144;8.176;2022-07-22T12:26:36;32.60;99.70
17442;DHT22;8838;50.144;8.176;2022-07-22T12:29:28;32.50;98.90
17442;DHT22;8838;50.144;8.176;2022-07-22T12:31:57;32.50;99.00
17442;DHT22;8838;50.144;8.176;2022-07-22T12:34:34;32.40;99.90
17442;DHT22;8838;50.144;8.176;2022-07-22T12:37:12;32.50;99.20
17442;DHT22;8838;50.144;8.176;2022-07-22T12:39:51;32.40;99.00
17442;DHT22;8838;50.144;8.176;2022-07-22T12:42:19;32.20;98.30
17442;DHT22;8838;50.144;8.176;2022-07-22T12:44:54;32.20;98.00
17442;DHT22;8838;50.144;8.176;2022-07-22T12:47:43;32.30;98.80
17442;DHT22;8838;50.144;8.176;2022-07-22T12:50:25;32.30;98.60
17442;DHT22;8838;50.144;8.176;2022-07-22T12:52:55;32.20;99.20
17442;DHT22;8838;50.144;8.176;2022-07-22T12:55:23;32.00;98.10
17442;DHT22;8838;50.144;8.176;2022-07-22T12:57:50;31.70;98.50
17442;DHT22;8838;50.144;8.176;2022-07-22T13:00:19;31.40;99.10
17442;DHT22;8838;50.144;8.176;2022-07-22T13:02:46;31.50;99.90
17442;DHT22;8838;50.144;8.176;2022-07-22T13:05:14;31.50;99.00
17442;DHT22;8838;50.144;8.176;2022-07-22T13:07:42;31.10;99.50
17442;DHT22;8838;50.144;8.176;2022-07-22T13:10:12;31.10;99.00
17442;DHT22;8838;50.144;8.176;2022-07-22T13:12:39;31.00;98.70
17442;DHT22;8838;50.144;8.176;2022-07-22T13:15:07;30.80;99.10
17442;DHT22;8838;50.144;8.176;2022-07-22T13:17:35;31.00;99.70
17442;DHT22;8838;50.144;8.176;2022-07-22T13:20:03;30.90;99.10
17442;DHT22;8838;50.144;8.176;2022-07-22T13:22:30;30.80;99.70
17442;DHT22;8838;50.144;8.176;2022-07-22T13:24:57;30.90;99.40
17442;DHT22;8838;50.144;8.176;2022-07-22T13:27:25;30.90;99.10
17442;DHT22;8838;50.144;8.176;2022-07-22T13:29:52;30.80;99.00
17442;DHT22;8838;50.144;8.176;2022-07-22T13:32:19;30.80;99.40
17442;DHT22;8838;50.144;8.176;2022-07-22T13:34:46;30.90;99.10
17442;DHT22;8838;50.144;8.176;2022-07-22T13:37:13;31.00;98.60
17442;DHT22;8838;50.144;8.176;2022-07-22T13:39:40;30.80;99.00
17442;DHT22;8838;50.144;8.176;2022-07-22T13:42:08;31.00;99.10
17442;DHT22;8838;50.144;8.176;2022-07-22T13:44:36;31.20;98.50
17442;DHT22;8838;50.144;8.176;2022-07-22T13:47:03;31.00;98.70
17442;DHT22;8838;50.144;8.176;2022-07-22T13:49:30;30.70;98.90
17442;DHT22;8838;50.144;8.176;2022-07-22T13:51:57;30.40;98.80
17442;DHT22;8838;50.144;8.176;2022-07-22T13:54:24;30.40;98.80
17442;DHT22;8838;50.144;8.176;2022-07-22T13:56:51;30.20;99.00
17442;DHT22;8838;50.144;8.176;2022-07-22T13:59:17;30.10;98.80
17442;DHT22;8838;50.144;8.176;2022-07-22T14:01:46;30.30;99.30
17442;DHT22;8838;50.144;8.176;2022-07-22T14:04:13;30.60;99.90
17442;DHT22;8838;50.144;8.176;2022-07-22T14:06:40;31.00;99.30
17442;DHT22;8838;50.144;8.176;2022-07-22T14:09:07;31.10;99.30
17442;DHT22;8838;50.144;8.176;2022-07-22T14:11:34;31.50;99.40
17442;DHT22;8838;50.144;8.176;2022-07-22T14:14:01;31.60;98.80
17442;DHT22;8838;50.144;8.176;2022-07-22T14:16:28;31.60;98.40
17442;DHT22;8838;50.144;8.176;2022-07-22T14:19:03;31.30;97.70
17442;DHT22;8838;50.144;8.176;2022-07-22T14:21:30;31.00;99.00
17442;DHT22;8838;50.144;8.176;2022-07-22T14:23:57;30.60;99.30
17442;DHT22;8838;50.144;8.176;2022-07-22T14:26:24;30.50;99.20
17442;DHT22;8838;50.144;8.176;2022-07-22T14:28:51;30.40;99.50
17442;DHT22;8838;50.144;8.176;2022-07-22T14:31:19;30.30;99.20
17442;DHT22;8838;50.144;8.176;2022-07-22T14:33:46;30.50;99.50
17442;DHT22;8838;50.144;8.176;2022-07-22T14:36:15;30.60;99.00
17442;DHT22;8838;50.144;8.176;2022-07-22T14:38:42;30.70;99.40
17442;DHT22;8838;50.144;8.176;2022-07-22T14:41:10;30.60;98.80
17442;DHT22;8838;50.144;8.176;2022-07-22T14:43:37;30.80;99.20
17442;DHT22;8838;50.144;8.176;2022-07-22T14:46:05;30.70;98.60
17442;DHT22;8838;50.144;8.176;2022-07-22T14:48:32;30.40;98.70
17442;DHT22;8838;50.144;8.176;2022-07-22T14:51:00;30.60;98.80
17442;DHT22;8838;50.144;8.176;2022-07-22T14:53:31;30.40;98.40
17442;DHT22;8838;50.144;8.176;2022-07-22T14:55:58;30.10;98.40
17442;DHT22;8838;50.144;8.176;2022-07-22T14:58:29;29.60;99.20
17442;DHT22;8838;50.144;8.176;2022-07-22T15:00:56;29.60;99.60
17442;DHT22;8838;50.144;8.176;2022-07-22T15:03:23;29.60;99.90
17442;DHT22;8838;50.144;8.176;2022-07-22T15:05:49;29.80;99.90
17442;DHT22;8838;50.144;8.176;2022-07-22T15:08:16;29.80;99.80
17442;DHT22;8838;50.144;8.176;2022-07-22T15:10:46;30.10;99.20
17442;DHT22;8838;50.144;8.176;2022-07-22T15:13:13;30.60;99.40
17442;DHT22;8838;50.144;8.176;2022-07-22T15:15:40;30.80;99.00
17442;DHT22;8838;50.144;8.176;2022-07-22T15:18:07;31.20;98.10
17442;DHT22;8838;50.144;8.176;2022-07-22T15:20:34;31.10;98.40
17442;DHT22;8838;50.144;8.176;2022-07-22T15:23:07;31.40;98.30
17442;DHT22;8838;50.144;8.176;2022-07-22T15:25:34;31.60;97.70
17442;DHT22;8838;50.144;8.176;2022-07-22T15:28:04;31.80;97.80
17442;DHT22;8838;50.144;8.176;2022-07-22T15:30:32;31.80;97.50
17442;DHT22;8838;50.144;8.176;2022-07-22T15:32:59;31.80;97.70
17442;DHT22;8838;50.144;8.176;2022-07-22T15:35:26;31.80;97.30
17442;DHT22;8838;50.144;8.176;2022-07-22T15:37:54;31.80;97.30
17442;DHT22;8838;50.144;8.176;2022-07-22T15:40:20;31.70;97.00
17442;DHT22;8838;50.144;8.176;2022-07-22T15:42:49;31.50;96.90
17442;DHT22;8838;50.144;8.176;2022-07-22T15:45:17;31.30;97.10
17442;DHT22;8838;50.144;8.176;2022-07-22T15:47:44;31.10;96.80
17442;DHT22;8838;50.144;8.176;2022-07-22T15:50:11;30.90;97.10
17442;DHT22;8838;50.144;8.176;2022-07-22T15:52:38;31.10;96.90
17442;DHT22;8838;50.144;8.176;2022-07-22T15:55:06;31.30;97.00